Griffithville, Arkansas
Current Conditions -  °F | °C
As of 2:56 PM on Friday 28 Nov 2014 (Local Time) from KSRC Reporting Station
Clear Clear  
Wind Chill: 13°   Ceiling: Unl
Heat Index: 13°   Visibility: 10mi
Dew Point:   Wind: 12mph
Humidity: 51%   Direction: 180°S
Pressure: 30.14"   Gusts: NA
Location:  35.12°N, 91.65°W
Report Text: KSRC 282056Z AUTO 18010KT 10SM CLR 13/03 A3014 RMK AO2 SLP214 T01280028 56039 TSNO
Loading
Personal Weather Stations






























Interactive Weather Map New forecast layout! Learn more

10-Day Weather Forecast

Advertisements
Track Severe Weather on mobile